Willsboro Point, New York
Current Conditions -  °F | °C
As of 1:54 PM on Tuesday 21 Oct 2014 (Local Time) from KBTV Reporting Station
Light Rain Light Rain  
Wind Chill: 47°   Ceiling: 4400
Heat Index: 49°   Visibility: 10mi
Dew Point: 44°   Wind: 5mph
Humidity: 83%   Direction: 50°NE
Pressure: 29.98"   Gusts: NA
Location:  44.3585°N, 73.4161°W
Report Text: KBTV 211754Z 05004KT 10SM -RA OVC044 09/07 A2998 RMK AO2 SLP154 P0000 60005 T00940067 10094 20072 50002
Loading
Personal Weather Stations






























Interactive Weather Map
Tropical Storm Tracking
New forecast layout! Learn more

10-Day Weather Forecast

Advertisements
Track Severe Weather on mobile